Kuwait City, Kuwait
Current Conditions -  °F | °C
As of 6:00 AM on Saturday 29 Nov 2014 (Local Time) from OKBK Reporting Station
Clear Clear  
Wind Chill: 59°   Ceiling: Unl
Heat Index: 59°   Visibility: 4mi
Dew Point: 50°   Wind: 13mph
Humidity: 72%   Direction: 340°NNW
Pressure: 30.15"   Gusts: NA
Location:  29.22°N, 47.98°E
Report Text: OKBK 290300Z 34011KT 7000 NSC 15/10 Q1021 NOSIG
Loading
Personal Weather Stations






























Interactive Weather Map New forecast layout! Learn more

10-Day Weather Forecast

Advertisements
Track Severe Weather on mobile